Allen, South Dakota
Current Conditions -  °F | °C
As of 8:52 PM on Sunday 21 Dec 2014 (Local Time) from KIEN Reporting Station
Few Clouds Few Clouds  
Wind Chill: 28°   Ceiling: Unl
Heat Index: 36°   Visibility: 10mi
Dew Point: 30°   Wind: 12mph
Humidity: 79%   Direction: 310°NW
Pressure: 29.49"   Gusts: NA
Location:  43.28°N, 101.93°W
Report Text: KIEN 220352Z AUTO 31010KT 10SM FEW060 02/M01 A2949 RMK AO2 SLP003 T00221011
Loading
Personal Weather Stations






























Interactive Weather Map New forecast layout! Learn more

10-Day Weather Forecast

Advertisements
Track Severe Weather on mobile